Main page
METAR-TAF:

METAR-TAF

Airports :

Tunis, Tunisia

Tunis–Carthage International Airport

latitude: 36-50N, longitude: 010-14E, elevation: 3 m

Current weather observation

The report was made 22 minutes ago, at 11:30 UTC
Wind 14 kt from the West/Northwest, varying between West and North/Northwest
Temperature 31°C
Humidity 36%
Pressure 1016 hPa
Visibility 10 km or more
Few clouds at a height of 2600 ft

METAR: DTTA 211130Z 29014KT 270V330 9999 FEW026 31/14 Q1016 NOSIG

Time: 12:52 (11:52 UTC)

Forecast

The report was made 52 minutes ago, at 11:00 UTC
Forecast valid from 21 at 12 UTC to 22 at 12 UTC
Wind 16 kt from the West/Northwest
Visibility 10 km or more
Few clouds at a height of 2600 ft
Becoming
from 22 at 06 UTC to 22 at 08 UTC
Wind 5 kt from the Northwest

TAF: DTTA 211100Z 2112/2212 29016KT 9999 FEW026 BECMG 2206/2208 32005KT

Weather observations and forecasts of more than 4000 airports (METAR and TAF reports).

The available stations are represented by yellow and red dots on the map.

Hover mouse over dot to see the name of the station.

Then click to see weather observations and forecasts.

To change the map : click on the green buttons with a black cross to zoom in, on the green button with a dash to zoom out, or on the green arrows for adjacent maps.


METAR-TAF: